THA621 RPLL-VTBS
Flight info
| Callsign | THA621 |
|---|---|
| Flight time | 2h 51m |
| Altitude | 38000 |
| Route | SIRCA2R SIRCA L628 ARESI/K0876F380 L628 PCA G474 ANINA/N0472F380 G474 VEMKO M633 DULEM TUMGA1C |
| Aircraft | B772/H-SDE2E3FGHIJ5LORVWXY/LB1D1 |
Departure
| Time | 2026-05-06 05:43 |
|---|---|
| Airport | Ninoy Aquino International Airport (RPLL) |
Arrival
| Time | 2026-05-06 08:35 |
|---|---|
| Airport | Suvarnabhumi Airport (VTBS) |
| Time | Latitude | Longitude | Altitude | Speed | Heading |
|---|---|---|---|---|---|
| 2026-05-06 05:15 | 14.51654 | 121.01508 | 73 ft | 0 kts | 45° |
| 2026-05-06 05:30 | 14.51639 | 121.01493 | 63 ft | 4 kts | 45° |
| 2026-05-06 05:31 | 14.51620 | 121.01473 | 73 ft | 3 kts | 45° |
| 2026-05-06 05:31 | 14.51606 | 121.01457 | 63 ft | 4 kts | 73° |
| 2026-05-06 05:31 | 14.51608 | 121.01434 | 73 ft | 4 kts | 129° |
| 2026-05-06 05:31 | 14.51625 | 121.01415 | 63 ft | 3 kts | 135° |
| 2026-05-06 05:32 | 14.51628 | 121.01413 | 73 ft | 0 kts | 135° |
| 2026-05-06 05:34 | 14.51607 | 121.01434 | 64 ft | 7 kts | 135° |
| 2026-05-06 05:35 | 14.51558 | 121.01484 | 68 ft | 13 kts | 135° |
| 2026-05-06 05:35 | 14.51486 | 121.01558 | 65 ft | 14 kts | 135° |
| 2026-05-06 05:35 | 14.51434 | 121.01587 | 62 ft | 8 kts | 192° |
| 2026-05-06 05:35 | 14.51373 | 121.01577 | 62 ft | 11 kts | 150° |
| 2026-05-06 05:36 | 14.51304 | 121.01642 | 62 ft | 16 kts | 135° |
| 2026-05-06 05:36 | 14.51218 | 121.01730 | 64 ft | 19 kts | 135° |
| 2026-05-06 05:36 | 14.51123 | 121.01828 | 73 ft | 19 kts | 135° |
| 2026-05-06 05:36 | 14.51043 | 121.01910 | 67 ft | 11 kts | 135° |
| 2026-05-06 05:37 | 14.51004 | 121.01914 | 73 ft | 5 kts | 208° |
| 2026-05-06 05:37 | 14.50976 | 121.01870 | 64 ft | 10 kts | 243° |
| 2026-05-06 05:37 | 14.50935 | 121.01791 | 66 ft | 15 kts | 239° |
| 2026-05-06 05:37 | 14.50876 | 121.01690 | 67 ft | 16 kts | 240° |
| 2026-05-06 05:38 | 14.50813 | 121.01579 | 64 ft | 20 kts | 240° |
| 2026-05-06 05:38 | 14.50738 | 121.01445 | 66 ft | 23 kts | 240° |
| 2026-05-06 05:38 | 14.50653 | 121.01291 | 71 ft | 26 kts | 240° |
| 2026-05-06 05:38 | 14.50560 | 121.01125 | 64 ft | 28 kts | 240° |
| 2026-05-06 05:39 | 14.50462 | 121.00948 | 65 ft | 29 kts | 240° |
| 2026-05-06 05:39 | 14.50375 | 121.00791 | 65 ft | 21 kts | 240° |
| 2026-05-06 05:39 | 14.50310 | 121.00674 | 62 ft | 19 kts | 240° |
| 2026-05-06 05:39 | 14.50240 | 121.00550 | 63 ft | 22 kts | 240° |
| 2026-05-06 05:40 | 14.50164 | 121.00414 | 63 ft | 22 kts | 240° |
| 2026-05-06 05:40 | 14.50085 | 121.00273 | 62 ft | 23 kts | 240° |
| 2026-05-06 05:40 | 14.50007 | 121.00131 | 63 ft | 23 kts | 240° |
| 2026-05-06 05:40 | 14.49935 | 121.00000 | 65 ft | 13 kts | 240° |
| 2026-05-06 05:41 | 14.49859 | 120.99978 | 68 ft | 14 kts | 161° |
| 2026-05-06 05:41 | 14.49809 | 121.00034 | 72 ft | 1 kts | 103° |
| 2026-05-06 05:41 | 14.49810 | 121.00051 | 74 ft | 4 kts | 82° |
| 2026-05-06 05:41 | 14.49828 | 121.00087 | 66 ft | 7 kts | 56° |
| 2026-05-06 05:42 | 14.49847 | 121.00120 | 74 ft | 2 kts | 60° |
| 2026-05-06 05:42 | 14.49895 | 121.00207 | 64 ft | 45 kts | 60° |
| 2026-05-06 05:42 | 14.50182 | 121.00723 | 64 ft | 119 kts | 60° |
| 2026-05-06 05:42 | 14.50687 | 121.01638 | 85 ft | 175 kts | 59° |
| 2026-05-06 05:43 | 14.51315 | 121.02768 | 661 ft | 185 kts | 65° |
| 2026-05-06 05:43 | 14.51915 | 121.03969 | 1528 ft | 182 kts | 64° |
| 2026-05-06 05:43 | 14.52535 | 121.05116 | 2307 ft | 189 kts | 62° |
| 2026-05-06 05:43 | 14.53256 | 121.06370 | 2563 ft | 216 kts | 61° |
| 2026-05-06 05:44 | 14.54061 | 121.07779 | 2871 ft | 236 kts | 61° |
| 2026-05-06 05:44 | 14.54934 | 121.09326 | 3232 ft | 258 kts | 61° |
| 2026-05-06 05:44 | 14.55843 | 121.10946 | 3925 ft | 264 kts | 61° |
| 2026-05-06 05:44 | 14.56941 | 121.12451 | 4605 ft | 268 kts | 40° |
| 2026-05-06 05:45 | 14.58619 | 121.13292 | 5391 ft | 271 kts | 16° |
| 2026-05-06 05:45 | 14.60504 | 121.13545 | 6096 ft | 277 kts | 3° |
| 2026-05-06 05:45 | 14.62457 | 121.13543 | 6754 ft | 282 kts | 1° |
| 2026-05-06 05:45 | 14.64429 | 121.13517 | 7468 ft | 284 kts | 1° |
| 2026-05-06 05:46 | 14.66410 | 121.13468 | 8070 ft | 286 kts | 355° |
| 2026-05-06 05:46 | 14.67695 | 121.13114 | 8344 ft | 295 kts | 335° |
| 2026-05-06 05:46 | 14.69645 | 121.11141 | 9210 ft | 301 kts | 296° |
| 2026-05-06 05:46 | 14.70134 | 121.09078 | 9844 ft | 302 kts | 271° |
| 2026-05-06 05:47 | 14.70111 | 121.06883 | 10216 ft | 313 kts | 269° |
| 2026-05-06 05:47 | 14.70066 | 121.04548 | 10392 ft | 338 kts | 269° |
| 2026-05-06 05:47 | 14.70033 | 121.02044 | 10747 ft | 355 kts | 269° |
| 2026-05-06 05:47 | 14.69924 | 120.99472 | 11274 ft | 360 kts | 261° |
| 2026-05-06 05:48 | 14.69174 | 120.96970 | 11827 ft | 370 kts | 247° |
| 2026-05-06 05:48 | 14.68516 | 120.95337 | 12435 ft | 371 kts | 248° |
| 2026-05-06 05:48 | 14.67547 | 120.92827 | 13444 ft | 373 kts | 249° |
| 2026-05-06 05:48 | 14.66615 | 120.90313 | 14236 ft | 377 kts | 249° |
| 2026-05-06 05:49 | 14.65705 | 120.87794 | 14995 ft | 382 kts | 249° |
| 2026-05-06 05:49 | 14.64777 | 120.85207 | 15794 ft | 386 kts | 249° |
| 2026-05-06 05:49 | 14.63828 | 120.82558 | 16625 ft | 390 kts | 249° |
| 2026-05-06 05:49 | 14.62892 | 120.79950 | 17414 ft | 395 kts | 249° |
| 2026-05-06 05:50 | 14.61931 | 120.77281 | 18222 ft | 399 kts | 249° |
| 2026-05-06 05:50 | 14.60960 | 120.74583 | 18971 ft | 403 kts | 249° |
| 2026-05-06 05:50 | 14.59974 | 120.71847 | 19709 ft | 407 kts | 249° |
| 2026-05-06 05:50 | 14.58985 | 120.69099 | 20486 ft | 411 kts | 249° |
| 2026-05-06 05:51 | 14.57983 | 120.66315 | 21274 ft | 414 kts | 249° |
| 2026-05-06 05:51 | 14.56976 | 120.63519 | 22029 ft | 418 kts | 249° |
| 2026-05-06 05:51 | 14.55956 | 120.60691 | 22778 ft | 422 kts | 249° |
| 2026-05-06 05:51 | 14.54927 | 120.57834 | 23510 ft | 427 kts | 249° |
| 2026-05-06 05:52 | 14.53885 | 120.54945 | 24121 ft | 431 kts | 249° |
| 2026-05-06 05:52 | 14.52837 | 120.52039 | 24741 ft | 434 kts | 249° |
| 2026-05-06 05:52 | 14.51777 | 120.49106 | 25365 ft | 437 kts | 249° |
| 2026-05-06 05:52 | 14.50711 | 120.46159 | 25957 ft | 441 kts | 249° |
| 2026-05-06 05:53 | 14.49633 | 120.43175 | 26547 ft | 444 kts | 249° |
| 2026-05-06 05:53 | 14.48549 | 120.40175 | 27067 ft | 449 kts | 249° |
| 2026-05-06 05:53 | 14.47467 | 120.37180 | 27636 ft | 453 kts | 249° |
| 2026-05-06 05:53 | 14.46370 | 120.34121 | 28181 ft | 455 kts | 251° |
| 2026-05-06 05:54 | 14.45649 | 120.30940 | 28630 ft | 460 kts | 263° |
| 2026-05-06 05:54 | 14.45429 | 120.27636 | 29134 ft | 463 kts | 267° |
| 2026-05-06 05:54 | 14.45292 | 120.24309 | 29663 ft | 465 kts | 267° |
| 2026-05-06 05:54 | 14.45142 | 120.20961 | 30127 ft | 468 kts | 266° |
| 2026-05-06 05:55 | 14.44954 | 120.17603 | 30524 ft | 470 kts | 266° |
| 2026-05-06 05:55 | 14.44733 | 120.14231 | 30942 ft | 472 kts | 265° |
| 2026-05-06 05:55 | 14.44492 | 120.10844 | 31380 ft | 473 kts | 265° |
| 2026-05-06 05:55 | 14.44243 | 120.07459 | 31800 ft | 474 kts | 265° |
| 2026-05-06 05:56 | 14.43991 | 120.04065 | 32161 ft | 476 kts | 265° |
| 2026-05-06 05:56 | 14.43740 | 120.00649 | 32480 ft | 478 kts | 265° |
| 2026-05-06 05:56 | 14.43490 | 119.97222 | 32789 ft | 480 kts | 265° |
| 2026-05-06 05:56 | 14.43240 | 119.93778 | 33106 ft | 482 kts | 265° |
| 2026-05-06 05:57 | 14.42998 | 119.90333 | 33429 ft | 482 kts | 266° |
| 2026-05-06 05:57 | 14.42763 | 119.86875 | 33776 ft | 482 kts | 266° |
| 2026-05-06 05:57 | 14.42528 | 119.83425 | 34145 ft | 480 kts | 266° |
| 2026-05-06 05:57 | 14.42295 | 119.80041 | 34522 ft | 478 kts | 266° |
| 2026-05-06 05:58 | 14.42049 | 119.76578 | 34928 ft | 476 kts | 265° |
| 2026-05-06 05:58 | 14.41796 | 119.73178 | 35294 ft | 475 kts | 265° |
| 2026-05-06 05:58 | 14.41537 | 119.69781 | 35646 ft | 475 kts | 265° |
| 2026-05-06 05:58 | 14.41282 | 119.66435 | 35998 ft | 474 kts | 265° |
| 2026-05-06 05:59 | 14.41022 | 119.63013 | 36381 ft | 472 kts | 265° |
| 2026-05-06 05:59 | 14.40767 | 119.59633 | 36755 ft | 471 kts | 265° |
| 2026-05-06 05:59 | 14.40514 | 119.56271 | 37124 ft | 470 kts | 265° |
| 2026-05-06 05:59 | 14.40263 | 119.52950 | 37473 ft | 469 kts | 265° |
| 2026-05-06 06:00 | 14.40008 | 119.49595 | 37773 ft | 469 kts | 265° |
| 2026-05-06 06:00 | 14.39755 | 119.46227 | 37820 ft | 473 kts | 266° |
| 2026-05-06 06:00 | 14.39259 | 119.39458 | 37852 ft | 471 kts | 266° |
| 2026-05-06 06:01 | 14.38769 | 119.32766 | 37861 ft | 467 kts | 266° |
| 2026-05-06 06:01 | 14.38270 | 119.26069 | 37864 ft | 468 kts | 265° |
| 2026-05-06 06:02 | 14.37766 | 119.19358 | 37864 ft | 470 kts | 266° |
| 2026-05-06 06:02 | 14.37263 | 119.12633 | 37860 ft | 471 kts | 266° |
| 2026-05-06 06:03 | 14.36758 | 119.05898 | 37861 ft | 469 kts | 266° |
| 2026-05-06 06:03 | 14.36254 | 118.99237 | 37863 ft | 468 kts | 266° |
| 2026-05-06 06:04 | 14.35746 | 118.92544 | 37863 ft | 468 kts | 266° |
| 2026-05-06 06:04 | 14.35238 | 118.85843 | 37861 ft | 468 kts | 266° |
| 2026-05-06 06:05 | 14.34727 | 118.79147 | 37859 ft | 468 kts | 266° |
| 2026-05-06 06:05 | 14.34213 | 118.72440 | 37865 ft | 469 kts | 266° |
| 2026-05-06 06:06 | 14.33699 | 118.65729 | 37870 ft | 469 kts | 266° |
| 2026-05-06 06:06 | 14.33180 | 118.59015 | 37865 ft | 470 kts | 266° |
| 2026-05-06 06:07 | 14.32657 | 118.52290 | 37868 ft | 471 kts | 266° |
| 2026-05-06 06:07 | 14.32136 | 118.45597 | 37862 ft | 471 kts | 266° |
| 2026-05-06 06:08 | 14.31612 | 118.38862 | 37869 ft | 471 kts | 266° |
| 2026-05-06 06:08 | 14.31084 | 118.32124 | 37863 ft | 471 kts | 266° |
| 2026-05-06 06:09 | 14.30551 | 118.25389 | 37867 ft | 471 kts | 266° |
| 2026-05-06 06:09 | 14.30018 | 118.18660 | 37869 ft | 471 kts | 266° |
| 2026-05-06 06:10 | 14.29483 | 118.11941 | 37870 ft | 470 kts | 266° |
| 2026-05-06 06:10 | 14.28945 | 118.05216 | 37865 ft | 470 kts | 266° |
| 2026-05-06 06:11 | 14.28407 | 117.98497 | 37865 ft | 470 kts | 266° |
| 2026-05-06 06:11 | 14.27869 | 117.91778 | 37866 ft | 470 kts | 266° |
| 2026-05-06 06:12 | 14.27328 | 117.85049 | 37876 ft | 470 kts | 266° |
| 2026-05-06 06:12 | 14.26784 | 117.78375 | 37868 ft | 470 kts | 266° |
| 2026-05-06 06:13 | 14.26238 | 117.71648 | 37862 ft | 471 kts | 266° |
| 2026-05-06 06:13 | 14.25690 | 117.64924 | 37862 ft | 470 kts | 266° |
| 2026-05-06 06:14 | 14.25141 | 117.58209 | 37879 ft | 470 kts | 266° |
| 2026-05-06 06:14 | 14.24590 | 117.51488 | 37867 ft | 470 kts | 266° |
| 2026-05-06 06:15 | 14.24038 | 117.44773 | 37864 ft | 470 kts | 266° |
| 2026-05-06 06:15 | 14.23484 | 117.38060 | 37868 ft | 469 kts | 266° |
| 2026-05-06 06:16 | 14.22926 | 117.31352 | 37864 ft | 470 kts | 266° |
| 2026-05-06 06:16 | 14.22370 | 117.24676 | 37875 ft | 470 kts | 266° |
| 2026-05-06 06:17 | 14.21810 | 117.17957 | 37869 ft | 470 kts | 266° |
| 2026-05-06 06:17 | 14.21247 | 117.11246 | 37866 ft | 470 kts | 266° |
| 2026-05-06 06:18 | 14.20684 | 117.04543 | 37871 ft | 469 kts | 266° |
| 2026-05-06 06:18 | 14.20120 | 116.97851 | 37875 ft | 469 kts | 266° |
| 2026-05-06 06:19 | 14.19553 | 116.91155 | 37876 ft | 468 kts | 266° |
| 2026-05-06 06:19 | 14.18983 | 116.84459 | 37865 ft | 469 kts | 266° |
| 2026-05-06 06:20 | 14.18409 | 116.77770 | 37867 ft | 469 kts | 266° |
| 2026-05-06 06:20 | 14.17832 | 116.71080 | 37873 ft | 468 kts | 266° |
| 2026-05-06 06:21 | 14.17256 | 116.64390 | 37867 ft | 469 kts | 265° |
| 2026-05-06 06:21 | 14.16677 | 116.57693 | 37862 ft | 469 kts | 265° |
| 2026-05-06 06:22 | 14.16096 | 116.51003 | 37865 ft | 469 kts | 266° |
| 2026-05-06 06:22 | 14.15517 | 116.44352 | 37866 ft | 469 kts | 266° |
| 2026-05-06 06:23 | 14.14931 | 116.37655 | 37860 ft | 469 kts | 266° |
| 2026-05-06 06:23 | 14.14345 | 116.30967 | 37865 ft | 469 kts | 266° |
| 2026-05-06 06:24 | 14.13757 | 116.24272 | 37868 ft | 469 kts | 266° |
| 2026-05-06 06:24 | 14.13168 | 116.17586 | 37859 ft | 468 kts | 266° |
| 2026-05-06 06:25 | 14.12574 | 116.10896 | 37862 ft | 468 kts | 266° |
| 2026-05-06 06:26 | 14.11691 | 116.00938 | 37867 ft | 467 kts | 266° |
| 2026-05-06 06:26 | 14.11096 | 115.94264 | 37866 ft | 467 kts | 266° |
| 2026-05-06 06:27 | 14.10499 | 115.87592 | 37873 ft | 468 kts | 265° |
| 2026-05-06 06:27 | 14.09900 | 115.80910 | 37869 ft | 468 kts | 266° |
| 2026-05-06 06:28 | 14.09300 | 115.74243 | 37869 ft | 468 kts | 265° |
| 2026-05-06 06:28 | 14.08697 | 115.67574 | 37871 ft | 468 kts | 265° |
| 2026-05-06 06:29 | 14.08094 | 115.60905 | 37877 ft | 467 kts | 265° |
| 2026-05-06 06:29 | 14.07491 | 115.54274 | 37862 ft | 467 kts | 265° |
| 2026-05-06 06:30 | 14.06883 | 115.47608 | 37873 ft | 467 kts | 265° |
| 2026-05-06 06:30 | 14.06274 | 115.40940 | 37864 ft | 467 kts | 265° |
| 2026-05-06 06:31 | 14.05662 | 115.34274 | 37864 ft | 467 kts | 265° |
| 2026-05-06 06:31 | 14.05050 | 115.27613 | 37865 ft | 467 kts | 265° |
| 2026-05-06 06:32 | 14.04436 | 115.20951 | 37870 ft | 467 kts | 265° |
| 2026-05-06 06:32 | 14.03818 | 115.14284 | 37873 ft | 468 kts | 265° |
| 2026-05-06 06:33 | 14.03199 | 115.07618 | 37874 ft | 468 kts | 265° |
| 2026-05-06 06:33 | 14.02579 | 115.00948 | 37875 ft | 468 kts | 265° |
| 2026-05-06 06:34 | 14.02062 | 114.95411 | 37876 ft | 468 kts | 265° |
| 2026-05-06 06:34 | 14.01332 | 114.87613 | 37869 ft | 468 kts | 265° |
| 2026-05-06 06:35 | 14.00812 | 114.82068 | 37869 ft | 468 kts | 265° |
| 2026-05-06 06:35 | 14.00184 | 114.75392 | 37866 ft | 468 kts | 265° |
| 2026-05-06 06:36 | 13.99558 | 114.68760 | 37873 ft | 468 kts | 265° |
| 2026-05-06 06:36 | 13.98926 | 114.62087 | 37867 ft | 468 kts | 265° |
| 2026-05-06 06:37 | 13.98292 | 114.55416 | 37874 ft | 468 kts | 265° |
| 2026-05-06 06:37 | 13.97657 | 114.48753 | 37874 ft | 468 kts | 265° |
| 2026-05-06 06:38 | 13.97253 | 114.42089 | 37867 ft | 466 kts | 271° |
| 2026-05-06 06:38 | 13.97323 | 114.35410 | 37870 ft | 466 kts | 272° |
| 2026-05-06 06:39 | 13.97408 | 114.28728 | 37867 ft | 467 kts | 271° |
| 2026-05-06 06:39 | 13.97467 | 114.22077 | 37871 ft | 467 kts | 271° |
| 2026-05-06 06:40 | 13.97515 | 114.15346 | 37875 ft | 467 kts | 271° |
| 2026-05-06 06:40 | 13.97559 | 114.08694 | 37864 ft | 467 kts | 271° |
| 2026-05-06 06:41 | 13.97601 | 114.02005 | 37872 ft | 467 kts | 271° |
| 2026-05-06 06:41 | 13.97639 | 113.95322 | 37864 ft | 467 kts | 271° |
| 2026-05-06 06:42 | 13.97677 | 113.88635 | 37864 ft | 467 kts | 271° |
| 2026-05-06 06:42 | 13.97713 | 113.81946 | 37867 ft | 467 kts | 271° |
| 2026-05-06 06:43 | 13.97748 | 113.75265 | 37863 ft | 467 kts | 271° |
| 2026-05-06 06:43 | 13.97781 | 113.68586 | 37865 ft | 466 kts | 271° |
| 2026-05-06 06:44 | 13.97811 | 113.61907 | 37865 ft | 467 kts | 271° |
| 2026-05-06 06:44 | 13.97839 | 113.55232 | 37869 ft | 466 kts | 271° |
| 2026-05-06 06:45 | 13.97868 | 113.48598 | 37872 ft | 466 kts | 271° |
| 2026-05-06 06:45 | 13.97892 | 113.41927 | 37874 ft | 466 kts | 271° |
| 2026-05-06 06:46 | 13.97915 | 113.35243 | 37873 ft | 466 kts | 271° |
| 2026-05-06 06:46 | 13.97937 | 113.28579 | 37868 ft | 465 kts | 271° |
| 2026-05-06 06:47 | 13.97957 | 113.21921 | 37866 ft | 465 kts | 271° |
| 2026-05-06 06:47 | 13.97975 | 113.15260 | 37872 ft | 465 kts | 271° |
| 2026-05-06 06:48 | 13.97992 | 113.08602 | 37868 ft | 465 kts | 271° |
| 2026-05-06 06:48 | 13.98005 | 113.01933 | 37872 ft | 465 kts | 271° |
| 2026-05-06 06:49 | 13.98014 | 112.95278 | 37871 ft | 465 kts | 271° |
| 2026-05-06 06:49 | 13.98023 | 112.88666 | 37867 ft | 465 kts | 271° |
| 2026-05-06 06:50 | 13.98031 | 112.82013 | 37872 ft | 464 kts | 271° |
| 2026-05-06 06:50 | 13.98036 | 112.75361 | 37874 ft | 464 kts | 271° |
| 2026-05-06 06:51 | 13.98038 | 112.68721 | 37872 ft | 464 kts | 271° |
| 2026-05-06 06:51 | 13.98040 | 112.62075 | 37872 ft | 464 kts | 271° |
| 2026-05-06 06:52 | 13.98040 | 112.55434 | 37871 ft | 464 kts | 271° |
| 2026-05-06 06:52 | 13.98039 | 112.48783 | 37871 ft | 464 kts | 271° |
| 2026-05-06 06:53 | 13.98036 | 112.42146 | 37869 ft | 463 kts | 271° |
| 2026-05-06 06:53 | 13.98030 | 112.35518 | 37875 ft | 463 kts | 271° |
| 2026-05-06 06:54 | 13.98023 | 112.28895 | 37871 ft | 463 kts | 271° |
| 2026-05-06 06:54 | 13.98013 | 112.22266 | 37874 ft | 463 kts | 271° |
| 2026-05-06 06:55 | 13.98001 | 112.15680 | 37873 ft | 463 kts | 271° |
| 2026-05-06 06:55 | 13.97989 | 112.09053 | 37875 ft | 463 kts | 271° |
| 2026-05-06 06:56 | 13.97973 | 112.02425 | 37875 ft | 463 kts | 271° |
| 2026-05-06 06:56 | 13.97959 | 111.95792 | 37876 ft | 463 kts | 271° |
| 2026-05-06 06:57 | 13.97940 | 111.89163 | 37871 ft | 463 kts | 271° |
| 2026-05-06 06:57 | 13.97919 | 111.82534 | 37871 ft | 463 kts | 271° |
| 2026-05-06 06:58 | 13.97898 | 111.75906 | 37872 ft | 463 kts | 271° |
| 2026-05-06 06:58 | 13.97874 | 111.69276 | 37875 ft | 462 kts | 271° |
| 2026-05-06 06:59 | 13.97848 | 111.62653 | 37869 ft | 462 kts | 271° |
| 2026-05-06 06:59 | 13.97822 | 111.56033 | 37870 ft | 462 kts | 271° |
| 2026-05-06 07:00 | 13.97793 | 111.49414 | 37871 ft | 462 kts | 271° |
| 2026-05-06 07:00 | 13.97763 | 111.42796 | 37872 ft | 462 kts | 271° |
| 2026-05-06 07:01 | 13.97733 | 111.36227 | 37873 ft | 462 kts | 271° |
| 2026-05-06 07:01 | 13.97702 | 111.29612 | 37873 ft | 462 kts | 270° |
| 2026-05-06 07:02 | 13.97666 | 111.22989 | 37875 ft | 462 kts | 270° |
| 2026-05-06 07:02 | 13.97626 | 111.16367 | 37872 ft | 462 kts | 270° |
| 2026-05-06 07:03 | 13.97592 | 111.09787 | 37868 ft | 463 kts | 270° |
| 2026-05-06 07:03 | 13.97553 | 111.03158 | 37868 ft | 463 kts | 270° |
| 2026-05-06 07:04 | 13.97511 | 110.96531 | 37869 ft | 463 kts | 270° |
| 2026-05-06 07:04 | 13.97466 | 110.89895 | 37869 ft | 463 kts | 270° |
| 2026-05-06 07:05 | 13.97421 | 110.83261 | 37868 ft | 463 kts | 270° |
| 2026-05-06 07:05 | 13.97374 | 110.76629 | 37868 ft | 463 kts | 270° |
| 2026-05-06 07:06 | 13.97324 | 110.69987 | 37871 ft | 463 kts | 270° |
| 2026-05-06 07:06 | 13.97276 | 110.63350 | 37871 ft | 464 kts | 270° |
| 2026-05-06 07:07 | 13.97222 | 110.56745 | 37871 ft | 463 kts | 270° |
| 2026-05-06 07:07 | 13.97167 | 110.50116 | 37871 ft | 463 kts | 270° |
| 2026-05-06 07:08 | 13.97111 | 110.43478 | 37868 ft | 463 kts | 270° |
| 2026-05-06 07:08 | 13.97053 | 110.36844 | 37875 ft | 464 kts | 270° |
| 2026-05-06 07:09 | 13.96994 | 110.30207 | 37871 ft | 464 kts | 270° |
| 2026-05-06 07:09 | 13.96933 | 110.23565 | 37871 ft | 464 kts | 270° |
| 2026-05-06 07:10 | 13.96869 | 110.16917 | 37872 ft | 464 kts | 270° |
| 2026-05-06 07:10 | 13.96804 | 110.10265 | 37868 ft | 464 kts | 270° |
| 2026-05-06 07:11 | 13.96737 | 110.03617 | 37867 ft | 465 kts | 270° |
| 2026-05-06 07:11 | 13.96672 | 109.97003 | 37864 ft | 465 kts | 270° |
| 2026-05-06 07:12 | 13.96623 | 109.90354 | 37869 ft | 464 kts | 270° |
| 2026-05-06 07:12 | 13.96573 | 109.83705 | 37865 ft | 464 kts | 270° |
| 2026-05-06 07:13 | 13.96520 | 109.77060 | 37861 ft | 464 kts | 270° |
| 2026-05-06 07:13 | 13.96465 | 109.70420 | 37865 ft | 464 kts | 270° |
| 2026-05-06 07:14 | 13.96404 | 109.63778 | 37864 ft | 464 kts | 270° |
| 2026-05-06 07:14 | 13.96346 | 109.57135 | 37867 ft | 464 kts | 270° |
| 2026-05-06 07:15 | 13.96283 | 109.50478 | 37871 ft | 464 kts | 270° |
| 2026-05-06 07:15 | 13.96208 | 109.43819 | 37852 ft | 467 kts | 270° |
| 2026-05-06 07:16 | 13.96134 | 109.37157 | 37872 ft | 465 kts | 270° |
| 2026-05-06 07:16 | 13.96042 | 109.30501 | 37875 ft | 464 kts | 270° |
| 2026-05-06 07:17 | 13.95961 | 109.23850 | 37858 ft | 464 kts | 269° |
| 2026-05-06 07:17 | 13.95867 | 109.17206 | 37860 ft | 464 kts | 270° |
| 2026-05-06 07:18 | 13.95784 | 109.10609 | 37869 ft | 463 kts | 270° |
| 2026-05-06 07:18 | 13.95713 | 109.03971 | 37872 ft | 463 kts | 271° |
| 2026-05-06 07:19 | 13.95996 | 108.97356 | 37883 ft | 464 kts | 273° |
| 2026-05-06 07:19 | 13.96359 | 108.90716 | 37875 ft | 463 kts | 273° |
| 2026-05-06 07:20 | 13.96633 | 108.85218 | 37879 ft | 463 kts | 274° |
| 2026-05-06 07:20 | 13.97032 | 108.77523 | 37881 ft | 463 kts | 273° |
| 2026-05-06 07:21 | 13.97358 | 108.70904 | 37889 ft | 463 kts | 273° |
| 2026-05-06 07:21 | 13.97625 | 108.65349 | 37882 ft | 464 kts | 273° |
| 2026-05-06 07:22 | 13.97943 | 108.58763 | 37879 ft | 463 kts | 273° |
| 2026-05-06 07:22 | 13.98262 | 108.52134 | 37885 ft | 463 kts | 273° |
| 2026-05-06 07:23 | 13.98581 | 108.45502 | 37888 ft | 463 kts | 273° |
| 2026-05-06 07:23 | 13.98897 | 108.38868 | 37888 ft | 464 kts | 273° |
| 2026-05-06 07:24 | 13.99211 | 108.32231 | 37881 ft | 465 kts | 273° |
| 2026-05-06 07:24 | 13.99525 | 108.25568 | 37881 ft | 466 kts | 273° |
| 2026-05-06 07:25 | 13.99837 | 108.18904 | 37884 ft | 466 kts | 273° |
| 2026-05-06 07:25 | 14.00147 | 108.12234 | 37877 ft | 466 kts | 273° |
| 2026-05-06 07:26 | 14.00455 | 108.05571 | 37883 ft | 466 kts | 273° |
| 2026-05-06 07:26 | 14.00511 | 107.98909 | 37879 ft | 465 kts | 268° |
| 2026-05-06 07:27 | 14.00211 | 107.92241 | 37873 ft | 465 kts | 268° |
| 2026-05-06 07:27 | 13.99946 | 107.85629 | 37865 ft | 466 kts | 268° |
| 2026-05-06 07:28 | 13.99696 | 107.78971 | 37866 ft | 465 kts | 268° |
| 2026-05-06 07:28 | 13.99331 | 107.68968 | 37863 ft | 466 kts | 268° |
| 2026-05-06 07:29 | 13.99077 | 107.62284 | 37868 ft | 468 kts | 268° |
| 2026-05-06 07:29 | 13.98824 | 107.55573 | 37858 ft | 470 kts | 268° |
| 2026-05-06 07:30 | 13.98572 | 107.48830 | 37852 ft | 471 kts | 268° |
| 2026-05-06 07:30 | 13.98303 | 107.42141 | 37833 ft | 470 kts | 266° |
| 2026-05-06 07:31 | 13.97402 | 107.35491 | 37830 ft | 469 kts | 261° |
| 2026-05-06 07:31 | 13.96332 | 107.28863 | 37835 ft | 469 kts | 261° |
| 2026-05-06 07:32 | 13.95309 | 107.22221 | 37838 ft | 469 kts | 261° |
| 2026-05-06 07:32 | 13.93364 | 107.15838 | 37840 ft | 470 kts | 245° |
| 2026-05-06 07:33 | 13.89758 | 107.10228 | 37838 ft | 470 kts | 231° |
| 2026-05-06 07:33 | 13.85520 | 107.05074 | 37824 ft | 473 kts | 231° |
| 2026-05-06 07:34 | 13.81354 | 106.99873 | 37826 ft | 475 kts | 232° |
| 2026-05-06 07:34 | 13.77927 | 106.94114 | 37828 ft | 474 kts | 248° |
| 2026-05-06 07:35 | 13.76171 | 106.87623 | 37821 ft | 471 kts | 261° |
| 2026-05-06 07:35 | 13.75172 | 106.80955 | 37817 ft | 472 kts | 262° |
| 2026-05-06 07:36 | 13.74182 | 106.74286 | 37814 ft | 471 kts | 262° |
| 2026-05-06 07:36 | 13.73140 | 106.67631 | 37814 ft | 472 kts | 261° |
| 2026-05-06 07:37 | 13.72073 | 106.60966 | 37813 ft | 472 kts | 261° |
| 2026-05-06 07:37 | 13.71003 | 106.54306 | 37809 ft | 472 kts | 261° |
| 2026-05-06 07:38 | 13.69933 | 106.47641 | 37811 ft | 472 kts | 261° |
| 2026-05-06 07:38 | 13.68864 | 106.40970 | 37808 ft | 472 kts | 261° |
| 2026-05-06 07:39 | 13.67786 | 106.34304 | 37812 ft | 472 kts | 261° |
| 2026-05-06 07:39 | 13.66711 | 106.27638 | 37801 ft | 472 kts | 261° |
| 2026-05-06 07:40 | 13.65643 | 106.21023 | 37806 ft | 472 kts | 261° |
| 2026-05-06 07:40 | 13.64568 | 106.14377 | 37805 ft | 471 kts | 262° |
| 2026-05-06 07:41 | 13.64132 | 106.07665 | 37808 ft | 470 kts | 272° |
| 2026-05-06 07:41 | 13.64390 | 106.00957 | 37809 ft | 470 kts | 272° |
| 2026-05-06 07:42 | 13.64652 | 105.94236 | 37809 ft | 470 kts | 272° |
| 2026-05-06 07:42 | 13.64884 | 105.87524 | 37807 ft | 470 kts | 272° |
| 2026-05-06 07:43 | 13.65103 | 105.80819 | 37808 ft | 469 kts | 272° |
| 2026-05-06 07:43 | 13.65311 | 105.74108 | 37809 ft | 469 kts | 272° |
| 2026-05-06 07:44 | 13.65520 | 105.67404 | 37807 ft | 469 kts | 272° |
| 2026-05-06 07:44 | 13.65731 | 105.60694 | 37812 ft | 470 kts | 272° |
| 2026-05-06 07:45 | 13.65938 | 105.54034 | 37810 ft | 469 kts | 272° |
| 2026-05-06 07:45 | 13.66144 | 105.47319 | 37811 ft | 469 kts | 272° |
| 2026-05-06 07:46 | 13.66348 | 105.40620 | 37811 ft | 469 kts | 272° |
| 2026-05-06 07:46 | 13.66550 | 105.33917 | 37814 ft | 469 kts | 272° |
| 2026-05-06 07:47 | 13.66750 | 105.27206 | 37812 ft | 469 kts | 271° |
| 2026-05-06 07:47 | 13.66948 | 105.20502 | 37817 ft | 469 kts | 271° |
| 2026-05-06 07:48 | 13.67147 | 105.13788 | 37818 ft | 470 kts | 271° |
| 2026-05-06 07:48 | 13.67342 | 105.07061 | 37822 ft | 470 kts | 271° |
| 2026-05-06 07:49 | 13.67533 | 105.00341 | 37829 ft | 471 kts | 271° |
| 2026-05-06 07:49 | 13.67719 | 104.93644 | 37808 ft | 471 kts | 271° |
| 2026-05-06 07:50 | 13.67904 | 104.86908 | 37814 ft | 471 kts | 271° |
| 2026-05-06 07:50 | 13.68092 | 104.80142 | 37819 ft | 471 kts | 271° |
| 2026-05-06 07:51 | 13.68276 | 104.73448 | 37818 ft | 470 kts | 271° |
| 2026-05-06 07:51 | 13.68455 | 104.66727 | 37820 ft | 471 kts | 271° |
| 2026-05-06 07:52 | 13.68634 | 104.59999 | 37819 ft | 470 kts | 271° |
| 2026-05-06 07:52 | 13.68812 | 104.53283 | 37819 ft | 470 kts | 271° |
| 2026-05-06 07:53 | 13.68988 | 104.46561 | 37822 ft | 470 kts | 271° |
| 2026-05-06 07:53 | 13.69162 | 104.39841 | 37821 ft | 470 kts | 271° |
| 2026-05-06 07:54 | 13.69334 | 104.33113 | 37825 ft | 470 kts | 271° |
| 2026-05-06 07:54 | 13.69503 | 104.26439 | 37821 ft | 470 kts | 271° |
| 2026-05-06 07:55 | 13.69672 | 104.19703 | 37823 ft | 472 kts | 271° |
| 2026-05-06 07:55 | 13.69839 | 104.12936 | 37818 ft | 475 kts | 271° |
| 2026-05-06 07:56 | 13.70006 | 104.06121 | 37824 ft | 477 kts | 271° |
| 2026-05-06 07:56 | 13.70173 | 103.99304 | 37822 ft | 478 kts | 271° |
| 2026-05-06 07:57 | 13.70339 | 103.92470 | 37819 ft | 477 kts | 271° |
| 2026-05-06 07:57 | 13.70498 | 103.85697 | 37818 ft | 477 kts | 271° |
| 2026-05-06 07:58 | 13.70657 | 103.78861 | 37813 ft | 478 kts | 271° |
| 2026-05-06 07:58 | 13.70815 | 103.72021 | 37820 ft | 479 kts | 271° |
| 2026-05-06 07:59 | 13.70967 | 103.65171 | 37814 ft | 479 kts | 271° |
| 2026-05-06 07:59 | 13.71121 | 103.58323 | 37815 ft | 480 kts | 271° |
| 2026-05-06 08:00 | 13.71272 | 103.51454 | 37816 ft | 480 kts | 271° |
| 2026-05-06 08:00 | 13.71420 | 103.44587 | 37816 ft | 480 kts | 271° |
| 2026-05-06 08:01 | 13.71566 | 103.37764 | 37812 ft | 480 kts | 271° |
| 2026-05-06 08:01 | 13.71712 | 103.30898 | 37814 ft | 480 kts | 271° |
| 2026-05-06 08:02 | 13.71854 | 103.24040 | 37813 ft | 479 kts | 271° |
| 2026-05-06 08:02 | 13.71995 | 103.17180 | 37815 ft | 479 kts | 271° |
| 2026-05-06 08:03 | 13.72134 | 103.10321 | 37812 ft | 479 kts | 271° |
| 2026-05-06 08:03 | 13.72272 | 103.03459 | 37814 ft | 480 kts | 271° |
| 2026-05-06 08:04 | 13.72409 | 102.96596 | 37813 ft | 480 kts | 271° |
| 2026-05-06 08:04 | 13.72542 | 102.89732 | 37814 ft | 480 kts | 271° |
| 2026-05-06 08:05 | 13.72652 | 102.84029 | 37817 ft | 480 kts | 271° |
| 2026-05-06 08:05 | 13.72804 | 102.76053 | 37820 ft | 480 kts | 271° |
| 2026-05-06 08:06 | 13.72932 | 102.69190 | 37820 ft | 480 kts | 271° |
| 2026-05-06 08:06 | 13.73060 | 102.62324 | 37822 ft | 480 kts | 271° |
| 2026-05-06 08:07 | 13.73173 | 102.56620 | 37824 ft | 480 kts | 271° |
| 2026-05-06 08:07 | 13.73307 | 102.49755 | 37822 ft | 480 kts | 271° |
| 2026-05-06 08:08 | 13.73437 | 102.42890 | 37825 ft | 480 kts | 271° |
| 2026-05-06 08:08 | 13.73566 | 102.36027 | 37747 ft | 480 kts | 271° |
| 2026-05-06 08:09 | 13.73629 | 102.32678 | 37195 ft | 483 kts | 271° |
| 2026-05-06 08:09 | 13.73692 | 102.29241 | 36726 ft | 478 kts | 271° |
| 2026-05-06 08:09 | 13.73537 | 102.25834 | 36250 ft | 474 kts | 262° |
| 2026-05-06 08:09 | 13.72870 | 102.22535 | 35796 ft | 469 kts | 254° |
| 2026-05-06 08:10 | 13.71819 | 102.19375 | 35327 ft | 466 kts | 247° |
| 2026-05-06 08:10 | 13.70371 | 102.16397 | 34857 ft | 463 kts | 242° |
| 2026-05-06 08:10 | 13.68834 | 102.13493 | 34367 ft | 461 kts | 242° |
| 2026-05-06 08:10 | 13.67315 | 102.10645 | 33879 ft | 459 kts | 242° |
| 2026-05-06 08:11 | 13.65789 | 102.07768 | 33357 ft | 457 kts | 242° |
| 2026-05-06 08:11 | 13.64281 | 102.04897 | 32846 ft | 455 kts | 242° |
| 2026-05-06 08:11 | 13.62789 | 102.02039 | 32361 ft | 452 kts | 242° |
| 2026-05-06 08:11 | 13.61314 | 101.99200 | 31868 ft | 448 kts | 242° |
| 2026-05-06 08:12 | 13.59851 | 101.96380 | 31391 ft | 446 kts | 242° |
| 2026-05-06 08:12 | 13.58394 | 101.93567 | 30915 ft | 443 kts | 242° |
| 2026-05-06 08:12 | 13.56949 | 101.90780 | 30427 ft | 441 kts | 242° |
| 2026-05-06 08:12 | 13.55508 | 101.88002 | 29945 ft | 439 kts | 242° |
| 2026-05-06 08:13 | 13.54074 | 101.85237 | 29386 ft | 437 kts | 242° |
| 2026-05-06 08:13 | 13.52650 | 101.82496 | 28839 ft | 433 kts | 242° |
| 2026-05-06 08:13 | 13.51235 | 101.79771 | 28310 ft | 429 kts | 242° |
| 2026-05-06 08:13 | 13.49837 | 101.77081 | 27804 ft | 425 kts | 242° |
| 2026-05-06 08:14 | 13.48451 | 101.74412 | 27290 ft | 422 kts | 242° |
| 2026-05-06 08:14 | 13.47074 | 101.71764 | 26807 ft | 419 kts | 242° |
| 2026-05-06 08:14 | 13.45709 | 101.69137 | 26326 ft | 416 kts | 242° |
| 2026-05-06 08:14 | 13.44347 | 101.66519 | 25849 ft | 413 kts | 242° |
| 2026-05-06 08:15 | 13.42996 | 101.63922 | 25358 ft | 411 kts | 242° |
| 2026-05-06 08:15 | 13.41670 | 101.61336 | 24866 ft | 409 kts | 245° |
| 2026-05-06 08:15 | 13.40610 | 101.58641 | 24376 ft | 406 kts | 252° |
| 2026-05-06 08:15 | 13.39864 | 101.55853 | 23907 ft | 404 kts | 258° |
| 2026-05-06 08:16 | 13.39428 | 101.53047 | 23437 ft | 402 kts | 263° |
| 2026-05-06 08:16 | 13.39092 | 101.50203 | 22889 ft | 400 kts | 264° |
| 2026-05-06 08:16 | 13.38764 | 101.47377 | 22395 ft | 397 kts | 263° |
| 2026-05-06 08:16 | 13.38434 | 101.44575 | 21929 ft | 394 kts | 264° |
| 2026-05-06 08:17 | 13.38101 | 101.41797 | 21457 ft | 390 kts | 263° |
| 2026-05-06 08:17 | 13.37766 | 101.39043 | 21014 ft | 387 kts | 263° |
| 2026-05-06 08:17 | 13.37428 | 101.36303 | 20576 ft | 385 kts | 263° |
| 2026-05-06 08:17 | 13.37092 | 101.33588 | 20123 ft | 382 kts | 263° |
| 2026-05-06 08:18 | 13.36756 | 101.30884 | 19688 ft | 380 kts | 263° |
| 2026-05-06 08:18 | 13.36422 | 101.28189 | 19215 ft | 379 kts | 263° |
| 2026-05-06 08:18 | 13.36089 | 101.25507 | 18764 ft | 377 kts | 263° |
| 2026-05-06 08:18 | 13.35756 | 101.22835 | 18315 ft | 376 kts | 264° |
| 2026-05-06 08:19 | 13.35474 | 101.20178 | 17828 ft | 370 kts | 269° |
| 2026-05-06 08:19 | 13.35779 | 101.17603 | 17472 ft | 359 kts | 284° |
| 2026-05-06 08:19 | 13.36355 | 101.15132 | 17148 ft | 353 kts | 284° |
| 2026-05-06 08:19 | 13.36910 | 101.12720 | 16831 ft | 350 kts | 283° |
| 2026-05-06 08:20 | 13.37451 | 101.10297 | 16520 ft | 347 kts | 283° |
| 2026-05-06 08:20 | 13.37977 | 101.07882 | 16207 ft | 345 kts | 283° |
| 2026-05-06 08:20 | 13.38487 | 101.05485 | 15903 ft | 343 kts | 283° |
| 2026-05-06 08:20 | 13.38992 | 101.03091 | 15597 ft | 342 kts | 283° |
| 2026-05-06 08:21 | 13.39492 | 101.00711 | 15280 ft | 340 kts | 282° |
| 2026-05-06 08:21 | 13.39989 | 100.98340 | 14975 ft | 339 kts | 282° |
| 2026-05-06 08:21 | 13.40485 | 100.95974 | 14666 ft | 338 kts | 282° |
| 2026-05-06 08:21 | 13.40978 | 100.93622 | 14370 ft | 336 kts | 282° |
| 2026-05-06 08:22 | 13.41531 | 100.91312 | 14049 ft | 330 kts | 291° |
| 2026-05-06 08:22 | 13.42707 | 100.89297 | 13760 ft | 329 kts | 312° |
| 2026-05-06 08:22 | 13.44464 | 100.87808 | 13432 ft | 328 kts | 327° |
| 2026-05-06 08:22 | 13.46406 | 100.86582 | 12959 ft | 327 kts | 328° |
| 2026-05-06 08:23 | 13.48347 | 100.85354 | 12489 ft | 328 kts | 328° |
| 2026-05-06 08:23 | 13.50276 | 100.84109 | 12104 ft | 326 kts | 328° |
| 2026-05-06 08:23 | 13.52161 | 100.82878 | 11740 ft | 324 kts | 327° |
| 2026-05-06 08:23 | 13.54084 | 100.81723 | 11272 ft | 318 kts | 338° |
| 2026-05-06 08:24 | 13.56248 | 100.81312 | 10790 ft | 318 kts | 3° |
| 2026-05-06 08:24 | 13.58398 | 100.81721 | 10456 ft | 313 kts | 16° |
| 2026-05-06 08:24 | 13.60488 | 100.82330 | 10124 ft | 310 kts | 16° |
| 2026-05-06 08:24 | 13.62554 | 100.82917 | 9847 ft | 305 kts | 16° |
| 2026-05-06 08:25 | 13.64574 | 100.83483 | 9665 ft | 297 kts | 15° |
| 2026-05-06 08:25 | 13.66563 | 100.84032 | 9179 ft | 299 kts | 16° |
| 2026-05-06 08:25 | 13.68573 | 100.84585 | 8825 ft | 296 kts | 15° |
| 2026-05-06 08:25 | 13.70562 | 100.85131 | 8446 ft | 295 kts | 16° |
| 2026-05-06 08:26 | 13.72541 | 100.85672 | 8120 ft | 294 kts | 17° |
| 2026-05-06 08:26 | 13.74507 | 100.86214 | 7795 ft | 291 kts | 16° |
| 2026-05-06 08:26 | 13.76453 | 100.86747 | 7487 ft | 288 kts | 16° |
| 2026-05-06 08:26 | 13.78382 | 100.87278 | 7183 ft | 282 kts | 16° |
| 2026-05-06 08:27 | 13.80200 | 100.87771 | 6869 ft | 261 kts | 17° |
| 2026-05-06 08:27 | 13.81964 | 100.88257 | 6626 ft | 272 kts | 17° |
| 2026-05-06 08:27 | 13.83815 | 100.88766 | 6324 ft | 275 kts | 17° |
| 2026-05-06 08:27 | 13.85657 | 100.89270 | 6003 ft | 273 kts | 17° |
| 2026-05-06 08:28 | 13.87480 | 100.89769 | 5709 ft | 269 kts | 16° |
| 2026-05-06 08:28 | 13.89297 | 100.89961 | 5380 ft | 264 kts | 352° |
| 2026-05-06 08:28 | 13.90962 | 100.89202 | 5121 ft | 264 kts | 321° |
| 2026-05-06 08:28 | 13.92101 | 100.87743 | 4849 ft | 263 kts | 297° |
| 2026-05-06 08:29 | 13.92677 | 100.85972 | 4558 ft | 258 kts | 280° |
| 2026-05-06 08:29 | 13.92613 | 100.84169 | 4256 ft | 252 kts | 250° |
| 2026-05-06 08:29 | 13.91703 | 100.82681 | 4008 ft | 244 kts | 218° |
| 2026-05-06 08:29 | 13.90263 | 100.81863 | 3772 ft | 234 kts | 200° |
| 2026-05-06 08:30 | 13.88741 | 100.81304 | 3556 ft | 231 kts | 196° |
| 2026-05-06 08:30 | 13.87203 | 100.80858 | 3345 ft | 228 kts | 193° |
| 2026-05-06 08:30 | 13.85671 | 100.80458 | 3092 ft | 226 kts | 193° |
| 2026-05-06 08:30 | 13.84160 | 100.80063 | 2866 ft | 221 kts | 192° |
| 2026-05-06 08:31 | 13.82697 | 100.79678 | 2619 ft | 217 kts | 193° |
| 2026-05-06 08:31 | 13.81233 | 100.79288 | 2373 ft | 211 kts | 193° |
| 2026-05-06 08:31 | 13.79864 | 100.78926 | 2069 ft | 196 kts | 193° |
| 2026-05-06 08:31 | 13.78609 | 100.78596 | 1843 ft | 181 kts | 194° |
| 2026-05-06 08:32 | 13.77450 | 100.78288 | 1609 ft | 163 kts | 193° |
| 2026-05-06 08:32 | 13.76419 | 100.78018 | 1413 ft | 144 kts | 195° |
| 2026-05-06 08:32 | 13.75488 | 100.77771 | 1248 ft | 134 kts | 194° |
| 2026-05-06 08:32 | 13.74612 | 100.77537 | 1101 ft | 128 kts | 192° |
| 2026-05-06 08:33 | 13.73717 | 100.77304 | 928 ft | 135 kts | 193° |
| 2026-05-06 08:33 | 13.72813 | 100.77065 | 742 ft | 134 kts | 194° |
| 2026-05-06 08:33 | 13.71925 | 100.76828 | 570 ft | 130 kts | 194° |
| 2026-05-06 08:33 | 13.71054 | 100.76603 | 455 ft | 131 kts | 195° |
| 2026-05-06 08:34 | 13.70157 | 100.76361 | 240 ft | 131 kts | 194° |
| 2026-05-06 08:34 | 13.68478 | 100.75922 | 20 ft | 105 kts | 194° |
| 2026-05-06 08:34 | 13.67920 | 100.75776 | 15 ft | 61 kts | 194° |
| 2026-05-06 08:35 | 13.67645 | 100.75691 | 15 ft | 31 kts | 206° |
| 2026-05-06 08:35 | 13.67493 | 100.75585 | 17 ft | 18 kts | 222° |
| 2026-05-06 08:35 | 13.67452 | 100.75501 | 17 ft | 12 kts | 290° |
| 2026-05-06 08:35 | 13.67526 | 100.75482 | 17 ft | 12 kts | 12° |
| 2026-05-06 08:36 | 13.67606 | 100.75500 | 17 ft | 12 kts | 13° |
| 2026-05-06 08:36 | 13.67683 | 100.75520 | 17 ft | 12 kts | 15° |
| 2026-05-06 08:36 | 13.67762 | 100.75542 | 17 ft | 12 kts | 15° |
| 2026-05-06 08:36 | 13.67840 | 100.75564 | 17 ft | 12 kts | 15° |
| 2026-05-06 08:37 | 13.67918 | 100.75585 | 17 ft | 12 kts | 15° |
| 2026-05-06 08:37 | 13.67997 | 100.75607 | 17 ft | 12 kts | 15° |
| 2026-05-06 08:37 | 13.68075 | 100.75626 | 17 ft | 12 kts | 12° |
| 2026-05-06 08:37 | 13.68154 | 100.75646 | 17 ft | 12 kts | 14° |
| 2026-05-06 08:38 | 13.68232 | 100.75666 | 17 ft | 12 kts | 14° |
| 2026-05-06 08:38 | 13.68310 | 100.75687 | 18 ft | 12 kts | 14° |
| 2026-05-06 08:38 | 13.68388 | 100.75708 | 18 ft | 12 kts | 14° |
| 2026-05-06 08:38 | 13.68451 | 100.75672 | 19 ft | 12 kts | 289° |
| 2026-05-06 08:39 | 13.68471 | 100.75592 | 18 ft | 12 kts | 284° |
| 2026-05-06 08:39 | 13.68491 | 100.75510 | 17 ft | 12 kts | 284° |
| 2026-05-06 08:39 | 13.68512 | 100.75429 | 17 ft | 12 kts | 284° |
| 2026-05-06 08:39 | 13.68532 | 100.75347 | 17 ft | 12 kts | 284° |
| 2026-05-06 08:40 | 13.68553 | 100.75266 | 17 ft | 12 kts | 285° |
| 2026-05-06 08:40 | 13.68573 | 100.75184 | 18 ft | 12 kts | 284° |
| 2026-05-06 08:40 | 13.68633 | 100.75146 | 18 ft | 12 kts | 8° |
| 2026-05-06 08:40 | 13.68684 | 100.75164 | 18 ft | 4 kts | 43° |
| 2026-05-06 08:41 | 13.68689 | 100.75185 | 18 ft | 3 kts | 95° |
| 2026-05-06 08:41 | 13.68682 | 100.75209 | 18 ft | 4 kts | 104° |
| 2026-05-06 08:41 | 13.68677 | 100.75229 | 18 ft | 2 kts | 104° |
| 2026-05-06 08:41 | 13.68677 | 100.75232 | 18 ft | 0 kts | 104° |